createdAt,value
2018-05-03T00:02:02.135Z,5.80
2018-05-03T00:04:35.956Z,6.30
2018-05-03T00:07:10.504Z,6.27
2018-05-03T00:09:44.438Z,6.60
2018-05-03T00:12:19.035Z,6.70
2018-05-03T00:14:52.610Z,6.53
2018-05-03T00:17:26.501Z,6.50
2018-05-03T00:20:01.094Z,7.23
2018-05-03T00:22:35.451Z,7.17
2018-05-03T00:25:09.968Z,6.93
2018-05-03T00:27:44.415Z,6.57
2018-05-03T00:30:18.962Z,7.07
2018-05-03T00:32:53.638Z,6.77
2018-05-03T00:35:27.270Z,7.23
2018-05-03T00:38:00.998Z,7.10
2018-05-03T00:40:36.460Z,6.93
2018-05-03T00:43:10.375Z,6.77
2018-05-03T00:45:44.094Z,6.97
2018-05-03T00:48:18.094Z,7.27
2018-05-03T00:50:51.716Z,6.97
2018-05-03T00:53:25.509Z,7.33
2018-05-03T00:55:59.698Z,7.03
2018-05-03T00:58:34.306Z,7.00
2018-05-03T01:01:07.848Z,7.60
2018-05-03T01:03:42.384Z,7.83
2018-05-03T01:06:17.158Z,6.80
2018-05-03T01:08:52.615Z,7.97
2018-05-03T01:11:26.507Z,8.00
2018-05-03T01:14:00.959Z,7.27
2018-05-03T01:16:34.670Z,7.97
2018-05-03T01:19:09.406Z,7.90
2018-05-03T01:21:43.796Z,7.50
2018-05-03T01:24:17.679Z,7.63
2018-05-03T01:26:52.805Z,7.80
2018-05-03T01:29:27.275Z,8.07
2018-05-03T01:32:01.215Z,7.53
2018-05-03T01:34:35.782Z,7.57
2018-05-03T01:37:09.715Z,8.17
2018-05-03T01:39:43.742Z,8.40
2018-05-03T01:42:17.736Z,8.43
2018-05-03T01:44:52.381Z,8.20
2018-05-03T01:47:26.107Z,7.13
2018-05-03T01:50:00.548Z,8.07
2018-05-03T01:52:34.144Z,7.80
2018-05-03T01:55:07.749Z,7.43
2018-05-03T01:57:41.505Z,7.80
2018-05-03T02:00:15.563Z,7.90
2018-05-03T02:02:50.102Z,7.93
2018-05-03T02:05:24.856Z,7.80
2018-05-03T02:07:59.486Z,8.00
2018-05-03T02:10:33.875Z,8.30
2018-05-03T02:13:08.552Z,8.70
2018-05-03T02:15:43.711Z,7.23
2018-05-03T02:18:18.105Z,8.37
2018-05-03T02:20:51.969Z,7.77
2018-05-03T02:23:25.781Z,8.20
2018-05-03T02:26:00.202Z,7.50
2018-05-03T02:28:34.422Z,7.90
2018-05-03T02:31:09.226Z,7.60
2018-05-03T02:33:43.946Z,7.90
2018-05-03T02:36:18.231Z,7.60
2018-05-03T02:38:51.938Z,7.93
2018-05-03T02:41:25.737Z,7.47
2018-05-03T02:43:59.289Z,8.17
2018-05-03T02:46:33.318Z,7.60
2018-05-03T02:49:07.979Z,7.80
2018-05-03T02:51:41.678Z,7.67
2018-05-03T02:54:16.108Z,8.10
2018-05-03T02:56:49.683Z,7.83
2018-05-03T02:59:35.439Z,7.80
2018-05-03T03:02:15.340Z,8.70
2018-05-03T03:18:49.567Z,8.13
2018-05-03T03:21:40.846Z,8.30
2018-05-03T03:24:32.527Z,8.23
2018-05-03T03:27:25.307Z,8.20
2018-05-03T03:30:11.769Z,8.00
2018-05-03T03:32:57.487Z,8.37
2018-05-03T03:48:59.077Z,8.33
2018-05-03T03:51:32.834Z,8.23
2018-05-03T03:54:07.725Z,8.47
2018-05-03T03:56:41.318Z,8.40
2018-05-03T03:59:15.435Z,8.57
2018-05-03T04:01:49.122Z,8.67
2018-05-03T04:04:22.739Z,8.03
2018-05-03T04:06:56.675Z,8.80
2018-05-03T04:09:30.995Z,8.57
2018-05-03T04:12:05.160Z,9.13
2018-05-03T04:14:38.854Z,7.83
2018-05-03T04:17:13.261Z,8.00
2018-05-03T04:20:10.791Z,8.83
2018-05-03T04:22:54.375Z,9.10
2018-05-03T04:25:40.844Z,8.63
2018-05-03T04:28:14.422Z,9.00
2018-05-03T04:30:48.022Z,9.03
2018-05-03T04:33:21.528Z,8.73
2018-05-03T04:35:55.806Z,9.53
2018-05-03T04:38:29.694Z,8.93
2018-05-03T04:41:03.195Z,9.10
2018-05-03T04:43:36.819Z,9.03
2018-05-03T04:46:11.669Z,8.97
2018-05-03T04:48:45.175Z,8.57
2018-05-03T04:51:18.634Z,8.73
2018-05-03T04:53:53.150Z,9.00
2018-05-03T04:56:26.842Z,8.90
2018-05-03T04:59:01.182Z,8.80
2018-05-03T05:01:36.440Z,8.93
2018-05-03T05:04:10.077Z,8.90
2018-05-03T05:06:43.619Z,8.70
2018-05-03T05:09:17.247Z,9.30
2018-05-03T05:11:50.892Z,8.33
2018-05-03T05:14:25.770Z,9.70
2018-05-03T05:17:00.488Z,9.07
2018-05-03T05:19:35.011Z,8.83
2018-05-03T05:22:08.801Z,8.53
2018-05-03T05:24:43.304Z,9.13
2018-05-03T05:27:17.794Z,9.07
2018-05-03T05:29:52.374Z,8.53
2018-05-03T05:32:25.936Z,8.77
2018-05-03T05:34:59.666Z,9.03
2018-05-03T05:37:33.254Z,9.70
2018-05-03T05:40:07.181Z,9.23
2018-05-03T05:42:41.386Z,9.60
2018-05-03T05:45:16.005Z,8.73
2018-05-03T05:47:51.231Z,8.07
2018-05-03T05:50:25.040Z,8.97
2018-05-03T05:52:59.358Z,8.73
2018-05-03T05:55:34.000Z,9.40
2018-05-03T05:58:08.573Z,8.93
2018-05-03T06:00:42.675Z,8.50
2018-05-03T06:03:16.693Z,8.90
2018-05-03T06:05:51.535Z,9.63
2018-05-03T06:08:25.489Z,9.00
2018-05-03T06:10:59.112Z,9.27
2018-05-03T06:13:34.416Z,8.73
2018-05-03T06:16:08.153Z,9.27
2018-05-03T06:18:43.237Z,8.57
2018-05-03T06:21:17.647Z,9.03
2018-05-03T06:23:52.194Z,9.07
2018-05-03T06:26:26.015Z,9.40
2018-05-03T06:28:59.679Z,10.00
2018-05-03T06:31:33.949Z,9.33
2018-05-03T06:34:07.591Z,8.83
2018-05-03T06:36:41.098Z,9.40
2018-05-03T06:39:15.027Z,9.03
2018-05-03T06:41:49.479Z,8.80
2018-05-03T06:44:23.227Z,9.00
2018-05-03T06:46:57.797Z,9.63
2018-05-03T06:49:32.524Z,9.33
2018-05-03T06:52:06.902Z,9.43
2018-05-03T06:54:41.586Z,9.37
2018-05-03T06:57:15.999Z,9.33
2018-05-03T06:59:50.506Z,9.43
2018-05-03T07:02:24.851Z,8.23
2018-05-03T07:04:58.402Z,8.73
2018-05-03T07:07:32.446Z,8.77
2018-05-03T07:10:06.595Z,8.23
2018-05-03T07:12:40.362Z,8.80
2018-05-03T07:15:14.842Z,9.20
2018-05-03T07:17:48.502Z,8.90
2018-05-03T07:20:22.981Z,8.63
2018-05-03T07:22:57.370Z,8.67
2018-05-03T07:25:31.719Z,8.37
2018-05-03T07:28:05.557Z,8.50
2018-05-03T07:30:39.962Z,8.23
2018-05-03T07:33:13.632Z,8.03
2018-05-03T07:35:48.239Z,8.10
2018-05-03T07:38:22.594Z,7.87
2018-05-03T07:40:57.233Z,8.37
2018-05-03T07:43:30.699Z,7.93
2018-05-03T07:46:04.334Z,8.27
2018-05-03T07:48:37.999Z,7.80
2018-05-03T07:51:12.419Z,8.10
2018-05-03T07:53:46.268Z,10.03
2018-05-03T07:56:19.913Z,7.90
2018-05-03T07:58:53.532Z,7.80
2018-05-03T08:01:27.066Z,8.10
2018-05-03T08:04:01.426Z,8.57
2018-05-03T08:06:35.303Z,24.20
2018-05-03T08:09:09.054Z,12.57
2018-05-03T08:11:42.834Z,8.20
2018-05-03T08:14:16.580Z,8.07
2018-05-03T08:16:50.057Z,7.90
2018-05-03T08:19:23.664Z,7.57
2018-05-03T08:21:57.351Z,8.83
2018-05-03T08:24:31.197Z,8.13
2018-05-03T08:27:05.599Z,8.03
2018-05-03T08:29:39.373Z,7.70
2018-05-03T08:32:12.895Z,7.67
2018-05-03T08:34:46.496Z,6.93
2018-05-03T08:37:20.986Z,7.90
2018-05-03T08:39:55.378Z,7.90
2018-05-03T08:42:29.934Z,7.80
2018-05-03T08:45:03.572Z,7.87
2018-05-03T08:47:37.228Z,7.03
2018-05-03T08:50:11.784Z,7.83
2018-05-03T08:52:45.491Z,7.90
2018-05-03T08:55:19.866Z,7.83
2018-05-03T08:57:53.485Z,7.37
2018-05-03T09:00:27.219Z,7.10
2018-05-03T09:03:00.922Z,7.20
2018-05-03T09:05:35.435Z,8.03
2018-05-03T09:08:09.082Z,7.60
2018-05-03T09:10:42.834Z,8.23
2018-05-03T09:13:16.407Z,7.63
2018-05-03T09:15:50.304Z,7.60
2018-05-03T09:18:24.050Z,7.37
2018-05-03T09:20:57.734Z,7.90
2018-05-03T09:23:31.464Z,7.87
2018-05-03T09:26:05.317Z,8.00
2018-05-03T09:28:39.954Z,8.40
2018-05-03T09:31:14.433Z,7.93
2018-05-03T09:33:48.659Z,7.50
2018-05-03T09:36:22.351Z,7.30
2018-05-03T09:38:56.122Z,7.77
2018-05-03T09:41:29.854Z,8.80
2018-05-03T09:44:03.395Z,8.13
2018-05-03T09:46:37.182Z,7.93
2018-05-03T09:49:11.839Z,7.20
2018-05-03T09:51:45.619Z,7.27
2018-05-03T09:54:19.954Z,7.00
2018-05-03T09:56:53.648Z,7.50
2018-05-03T09:59:27.257Z,7.50
2018-05-03T10:02:00.858Z,7.20
2018-05-03T10:04:34.778Z,7.23
2018-05-03T10:07:08.483Z,6.80
2018-05-03T10:09:43.037Z,7.00
2018-05-03T10:12:18.223Z,6.73
2018-05-03T10:14:51.895Z,6.87
2018-05-03T10:17:25.552Z,6.83
2018-05-03T10:19:59.379Z,6.63
2018-05-03T10:22:33.253Z,7.10
2018-05-03T10:25:07.137Z,6.43
2018-05-03T10:27:40.870Z,6.87
2018-05-03T10:30:17.073Z,7.63
2018-05-03T10:32:50.599Z,6.43
2018-05-03T10:35:24.343Z,6.97
2018-05-03T10:37:57.903Z,7.50
2018-05-03T10:40:31.698Z,7.47
2018-05-03T10:43:06.081Z,7.80
2018-05-03T10:45:39.739Z,7.20
2018-05-03T10:48:18.164Z,7.67
2018-05-03T10:50:51.984Z,8.63
2018-05-03T10:53:25.513Z,8.00
2018-05-03T10:55:59.196Z,7.27
2018-05-03T10:58:32.903Z,7.43
2018-05-03T11:01:06.982Z,7.60
2018-05-03T11:03:42.166Z,8.03
2018-05-03T11:06:16.589Z,7.90
2018-05-03T11:08:51.111Z,8.47
2018-05-03T11:11:24.970Z,8.50
2018-05-03T11:13:58.571Z,8.10
2018-05-03T11:16:33.071Z,8.93
2018-05-03T11:19:07.377Z,8.70
2018-05-03T11:21:41.054Z,8.13
2018-05-03T11:24:14.812Z,8.90
2018-05-03T11:26:49.207Z,8.33
2018-05-03T11:29:22.930Z,8.50
2018-05-03T11:31:56.626Z,9.00
2018-05-03T11:34:30.446Z,8.97
2018-05-03T11:37:04.188Z,8.07
2018-05-03T11:39:38.654Z,9.63
2018-05-03T11:42:12.154Z,9.30
2018-05-03T11:44:48.542Z,9.63
2018-05-03T11:47:23.001Z,9.10
2018-05-03T11:49:57.650Z,9.00
2018-05-03T11:52:32.914Z,9.53
2018-05-03T11:55:06.768Z,9.27
2018-05-03T11:57:41.802Z,9.43
2018-05-03T12:00:15.407Z,9.13
2018-05-03T12:02:49.055Z,8.70
2018-05-03T12:05:22.555Z,9.10
2018-05-03T12:07:56.301Z,8.63
2018-05-03T12:10:30.960Z,8.20
2018-05-03T12:13:05.583Z,8.20
2018-05-03T12:15:40.024Z,8.23
2018-05-03T12:18:13.677Z,8.47
2018-05-03T12:20:47.532Z,8.23
2018-05-03T12:23:21.179Z,7.67
2018-05-03T12:25:54.857Z,7.40
2018-05-03T12:28:29.279Z,8.10
2018-05-03T12:31:03.816Z,7.73
2018-05-03T12:33:38.270Z,7.57
2018-05-03T12:36:12.008Z,7.43
2018-05-03T12:38:46.066Z,7.53
2018-05-03T12:41:19.739Z,8.20
2018-05-03T12:43:54.631Z,7.63
2018-05-03T12:46:28.314Z,8.07
2018-05-03T12:49:02.189Z,7.53
2018-05-03T12:51:36.033Z,6.90
2018-05-03T12:54:10.578Z,7.10
2018-05-03T12:56:44.489Z,6.93
2018-05-03T12:59:18.823Z,7.10
2018-05-03T13:01:53.345Z,7.47
2018-05-03T13:04:27.867Z,7.50
2018-05-03T13:07:02.158Z,6.87
2018-05-03T13:09:36.484Z,6.97
2018-05-03T13:12:11.012Z,6.73
2018-05-03T13:14:44.694Z,6.93
2018-05-03T13:17:18.371Z,6.73
2018-05-03T13:19:51.940Z,6.30
2018-05-03T13:22:25.527Z,6.93
2018-05-03T13:24:59.032Z,6.00
2018-05-03T13:27:32.657Z,6.10
2018-05-03T13:30:06.352Z,5.83
2018-05-03T13:32:40.769Z,6.00
2018-05-03T13:35:14.544Z,5.60
2018-05-03T13:37:49.063Z,6.03
2018-05-03T13:40:23.703Z,5.87
2018-05-03T13:42:57.431Z,5.97
2018-05-03T13:45:30.977Z,5.60
2018-05-03T13:48:06.137Z,6.13
2018-05-03T13:50:40.690Z,5.53
2018-05-03T13:53:14.323Z,6.03
2018-05-03T13:55:48.857Z,5.60
2018-05-03T13:58:22.659Z,5.00
2018-05-03T14:00:57.259Z,5.13
2018-05-03T14:03:31.015Z,5.43
2018-05-03T14:06:04.683Z,5.70
2018-05-03T14:08:38.578Z,9.00
2018-05-03T14:11:12.226Z,5.80
2018-05-03T14:13:46.163Z,7.27
2018-05-03T14:16:20.006Z,4.90
2018-05-03T14:18:53.574Z,5.30
2018-05-03T14:21:28.087Z,5.57
2018-05-03T14:24:01.779Z,4.73
2018-05-03T14:26:35.362Z,4.67
2018-05-03T14:29:08.967Z,4.57
2018-05-03T14:31:43.267Z,4.73
2018-05-03T14:34:17.059Z,4.10
2018-05-03T14:36:50.870Z,4.13
2018-05-03T14:39:24.601Z,4.47
2018-05-03T14:41:58.305Z,4.67
2018-05-03T14:44:31.980Z,5.17
2018-05-03T14:47:05.579Z,5.00
2018-05-03T14:49:39.383Z,5.30
2018-05-03T14:52:13.863Z,4.30
2018-05-03T14:54:47.582Z,4.73
2018-05-03T14:57:21.542Z,4.20
2018-05-03T14:59:55.392Z,4.67
2018-05-03T15:02:29.793Z,4.60
2018-05-03T15:05:03.732Z,4.93
2018-05-03T15:07:37.524Z,4.93
2018-05-03T15:10:11.307Z,5.23
2018-05-03T15:12:45.704Z,4.93
2018-05-03T15:15:20.015Z,4.90
2018-05-03T15:17:54.447Z,5.90
2018-05-03T15:20:29.248Z,5.53
2018-05-03T15:23:03.132Z,6.07
2018-05-03T15:25:36.970Z,5.47
2018-05-03T15:28:10.688Z,5.63
2018-05-03T15:30:44.637Z,5.50
2018-05-03T15:33:18.270Z,5.50
2018-05-03T15:35:52.095Z,5.60
2018-05-03T15:38:25.894Z,5.30
2018-05-03T15:41:00.363Z,5.90
2018-05-03T15:43:35.044Z,4.90
2018-05-03T15:46:08.638Z,5.30
2018-05-03T15:48:42.411Z,5.50
2018-05-03T15:51:16.200Z,5.27
2018-05-03T15:53:50.667Z,5.63
2018-05-03T15:56:25.162Z,5.53
2018-05-03T15:58:59.623Z,5.30
2018-05-03T16:01:33.383Z,4.70
2018-05-03T16:04:07.947Z,5.37
2018-05-03T16:06:41.964Z,4.97
2018-05-03T16:09:15.916Z,5.10
2018-05-03T16:11:50.482Z,5.27
2018-05-03T16:14:25.363Z,4.73
2018-05-03T16:17:00.030Z,4.93
2018-05-03T16:19:34.046Z,5.07
2018-05-03T16:22:09.183Z,4.83
2018-05-03T16:24:43.808Z,5.40
2018-05-03T16:27:17.819Z,4.60
2018-05-03T16:29:53.341Z,5.60
2018-05-03T16:32:28.658Z,5.37
2018-05-03T16:35:03.211Z,5.07
2018-05-03T16:37:38.344Z,5.03
2018-05-03T16:40:12.779Z,6.20
2018-05-03T16:42:47.902Z,8.00
2018-05-03T16:45:22.927Z,6.73
2018-05-03T16:47:57.333Z,7.90
2018-05-03T16:50:31.323Z,11.97
2018-05-03T16:53:06.660Z,5.30
2018-05-03T16:55:40.323Z,6.33
2018-05-03T16:58:14.228Z,11.13
2018-05-03T17:00:48.538Z,7.03
2018-05-03T17:03:22.943Z,4.87
2018-05-03T17:05:56.760Z,5.30
2018-05-03T17:08:30.355Z,4.90
2018-05-03T17:11:04.884Z,5.40
2018-05-03T17:13:39.430Z,4.60
2018-05-03T17:16:13.010Z,4.70
2018-05-03T17:18:47.501Z,5.23
2018-05-03T17:21:21.894Z,5.23
2018-05-03T17:23:56.323Z,4.70
2018-05-03T17:26:31.006Z,5.10
2018-05-03T17:29:05.674Z,5.10
2018-05-03T17:31:39.328Z,5.30
2018-05-03T17:34:13.003Z,5.30
2018-05-03T17:36:46.874Z,5.30
2018-05-03T17:39:20.507Z,5.77
2018-05-03T17:41:54.128Z,5.17
2018-05-03T17:44:28.043Z,5.30
2018-05-03T17:47:01.836Z,5.53
2018-05-03T17:49:35.897Z,5.20
2018-05-03T17:52:09.548Z,5.47
2018-05-03T17:54:43.547Z,5.23
2018-05-03T17:57:18.051Z,7.13
2018-05-03T17:59:52.791Z,5.83
2018-05-03T18:02:27.502Z,4.97
2018-05-03T18:05:01.949Z,5.20
2018-05-03T18:07:36.579Z,5.37
2018-05-03T18:10:10.994Z,4.83
2018-05-03T18:12:45.406Z,5.10
2018-05-03T18:15:19.178Z,5.03
2018-05-03T18:17:53.896Z,4.73
2018-05-03T18:20:28.686Z,4.83
2018-05-03T18:23:03.464Z,4.50
2018-05-03T18:25:37.310Z,4.67
2018-05-03T18:28:11.297Z,4.70
2018-05-03T18:30:45.501Z,4.80
2018-05-03T18:33:20.469Z,4.07
2018-05-03T18:35:54.832Z,4.53
2018-05-03T18:38:29.592Z,4.50
2018-05-03T18:41:05.644Z,4.57
2018-05-03T18:43:41.145Z,4.20
2018-05-03T18:46:17.919Z,4.70
2018-05-03T18:48:51.606Z,4.40
2018-05-03T18:51:26.119Z,4.40
2018-05-03T18:54:00.897Z,4.50
2018-05-03T18:56:34.532Z,4.13
2018-05-03T18:59:08.576Z,4.40
2018-05-03T19:01:42.607Z,4.30
2018-05-03T19:04:17.562Z,4.60
2018-05-03T19:06:52.015Z,4.40
2018-05-03T19:09:26.114Z,4.30
2018-05-03T19:12:00.904Z,4.53
2018-05-03T19:14:34.884Z,4.30
2018-05-03T19:17:09.544Z,4.57
2018-05-03T19:19:43.468Z,4.17
2018-05-03T19:22:20.934Z,4.50
2018-05-03T19:24:55.594Z,4.37
2018-05-03T19:27:30.239Z,4.37
2018-05-03T19:30:04.345Z,4.60
2018-05-03T19:32:38.130Z,5.37
2018-05-03T19:35:11.893Z,6.43
2018-05-03T19:37:46.623Z,4.60
2018-05-03T19:40:20.263Z,4.50
2018-05-03T19:42:54.695Z,4.57
2018-05-03T19:45:28.449Z,4.80
2018-05-03T19:48:02.397Z,4.30
2018-05-03T19:50:37.292Z,4.40
2018-05-03T19:53:12.362Z,4.30
2018-05-03T19:55:46.369Z,4.63
2018-05-03T19:58:20.431Z,4.60
2018-05-03T20:00:54.705Z,4.63
2018-05-03T20:03:28.969Z,4.70
2018-05-03T20:06:03.878Z,4.33
2018-05-03T20:08:37.739Z,4.27
2018-05-03T20:11:11.765Z,4.73
2018-05-03T20:13:45.960Z,4.53
2018-05-03T20:16:19.968Z,4.63
2018-05-03T20:18:54.607Z,5.10
2018-05-03T20:21:28.607Z,4.67
2018-05-03T20:24:02.566Z,5.03
2018-05-03T20:26:37.840Z,4.80
2018-05-03T20:29:11.507Z,4.50
2018-05-03T20:31:45.364Z,4.73
2018-05-03T20:34:19.892Z,4.30
2018-05-03T20:36:55.166Z,5.10
2018-05-03T20:39:29.538Z,4.87
2018-05-03T20:42:04.734Z,4.87
2018-05-03T20:44:39.090Z,4.77
2018-05-03T20:47:14.319Z,5.17
2018-05-03T20:49:48.234Z,5.47
2018-05-03T20:52:23.485Z,5.10
2018-05-03T20:54:57.966Z,4.77
2018-05-03T20:57:32.184Z,4.87
2018-05-03T21:00:06.048Z,5.03
2018-05-03T21:02:39.818Z,5.10
2018-05-03T21:05:15.023Z,4.97
2018-05-03T21:07:49.124Z,5.33
2018-05-03T21:10:23.937Z,5.10
2018-05-03T21:12:57.872Z,5.03
2018-05-03T21:15:32.053Z,4.70
2018-05-03T21:18:08.875Z,5.50
2018-05-03T21:20:43.842Z,4.87
2018-05-03T21:23:17.631Z,4.30
2018-05-03T21:25:53.182Z,4.73
2018-05-03T21:28:27.148Z,4.67
2018-05-03T21:31:01.927Z,5.10
2018-05-03T21:33:36.220Z,4.93
2018-05-03T21:36:10.337Z,5.07
2018-05-03T21:38:46.534Z,5.07
2018-05-03T21:41:20.491Z,4.63
2018-05-03T21:43:56.191Z,5.30
2018-05-03T21:46:30.167Z,5.00
2018-05-03T21:49:04.077Z,4.97
2018-05-03T21:51:38.164Z,4.97
2018-05-03T21:54:12.687Z,4.93
2018-05-03T21:56:48.609Z,4.93
2018-05-03T21:59:23.687Z,4.93
2018-05-03T22:01:58.448Z,5.23
2018-05-03T22:04:36.051Z,5.00
2018-05-03T22:07:10.027Z,4.97
2018-05-03T22:09:45.357Z,4.87
2018-05-03T22:12:19.788Z,5.00
2018-05-03T22:14:53.597Z,5.00
2018-05-03T22:17:28.573Z,4.67
2018-05-03T22:20:02.720Z,5.53
2018-05-03T22:22:36.876Z,5.07
2018-05-03T22:25:10.835Z,5.33
2018-05-03T22:27:44.671Z,5.50
2018-05-03T22:30:18.862Z,5.40
2018-05-03T22:32:54.511Z,5.37
2018-05-03T22:35:29.139Z,5.40
2018-05-03T22:38:04.928Z,5.67
2018-05-03T22:40:39.402Z,5.67
2018-05-03T22:43:15.769Z,5.00
2018-05-03T22:45:50.487Z,5.10
2018-05-03T22:48:25.009Z,5.23
2018-05-03T22:50:59.745Z,5.10
2018-05-03T22:53:33.952Z,5.63
2018-05-03T22:56:07.852Z,5.53
2018-05-03T22:58:41.572Z,5.90
2018-05-03T23:01:17.014Z,5.20
2018-05-03T23:03:51.556Z,5.63
2018-05-03T23:06:26.158Z,5.93
2018-05-03T23:08:59.955Z,5.67
2018-05-03T23:11:35.423Z,5.80
2018-05-03T23:14:09.408Z,6.47
2018-05-03T23:16:43.420Z,6.30
2018-05-03T23:19:17.624Z,7.17
2018-05-03T23:21:52.365Z,6.40
2018-05-03T23:24:26.990Z,6.23
2018-05-03T23:27:01.874Z,7.60
2018-05-03T23:29:35.735Z,7.00
2018-05-03T23:32:09.626Z,7.30
2018-05-03T23:34:44.817Z,7.03
2018-05-03T23:37:19.903Z,7.63
2018-05-03T23:39:55.868Z,9.23
2018-05-03T23:42:29.869Z,8.33
2018-05-03T23:45:03.713Z,8.27
2018-05-03T23:47:38.503Z,7.80
2018-05-03T23:50:13.311Z,7.97
2018-05-03T23:52:47.858Z,8.57
2018-05-03T23:55:23.043Z,8.27
2018-05-03T23:57:57.034Z,8.67
